sensor_id;sensor_type;location;lat;lon;timestamp;P1;durP1;ratioP1;P2;durP2;ratioP2
54853;SDS011;40747;49.480;8.658;2023-09-07T00:02:24;2.45;;;1.70;;
54853;SDS011;40747;49.480;8.658;2023-09-07T00:04:50;2.33;;;1.63;;
54853;SDS011;40747;49.480;8.658;2023-09-07T00:07:15;2.67;;;1.67;;
54853;SDS011;40747;49.480;8.658;2023-09-07T00:09:40;2.90;;;1.73;;
54853;SDS011;40747;49.480;8.658;2023-09-07T00:12:06;3.38;;;1.48;;
54853;SDS011;40747;49.480;8.658;2023-09-07T00:14:31;2.20;;;1.63;;
54853;SDS011;40747;49.480;8.658;2023-09-07T00:16:56;3.38;;;1.88;;
54853;SDS011;40747;49.480;8.658;2023-09-07T00:19:22;3.85;;;1.90;;
54853;SDS011;40747;49.480;8.658;2023-09-07T00:21:47;3.60;;;1.73;;
54853;SDS011;40747;49.480;8.658;2023-09-07T00:24:12;2.72;;;1.73;;
54853;SDS011;40747;49.480;8.658;2023-09-07T00:26:37;1.38;;;1.20;;
54853;SDS011;40747;49.480;8.658;2023-09-07T00:29:03;5.55;;;1.95;;
54853;SDS011;40747;49.480;8.658;2023-09-07T00:31:28;2.80;;;1.70;;
54853;SDS011;40747;49.480;8.658;2023-09-07T00:33:53;2.35;;;1.23;;
54853;SDS011;40747;49.480;8.658;2023-09-07T00:36:19;2.03;;;1.55;;
54853;SDS011;40747;49.480;8.658;2023-09-07T00:38:44;2.88;;;1.95;;
54853;SDS011;40747;49.480;8.658;2023-09-07T00:41:11;1.90;;;1.27;;
54853;SDS011;40747;49.480;8.658;2023-09-07T00:43:38;2.00;;;1.45;;
54853;SDS011;40747;49.480;8.658;2023-09-07T00:46:05;1.83;;;1.35;;
54853;SDS011;40747;49.480;8.658;2023-09-07T00:48:31;2.88;;;1.58;;
54853;SDS011;40747;49.480;8.658;2023-09-07T00:50:57;2.15;;;1.60;;
54853;SDS011;40747;49.480;8.658;2023-09-07T00:53:22;4.05;;;2.00;;
54853;SDS011;40747;49.480;8.658;2023-09-07T00:55:49;1.95;;;1.67;;
54853;SDS011;40747;49.480;8.658;2023-09-07T00:58:15;4.00;;;1.60;;
54853;SDS011;40747;49.480;8.658;2023-09-07T01:00:40;2.35;;;1.42;;
54853;SDS011;40747;49.480;8.658;2023-09-07T01:03:06;3.28;;;1.50;;
54853;SDS011;40747;49.480;8.658;2023-09-07T01:05:37;2.25;;;1.75;;
54853;SDS011;40747;49.480;8.658;2023-09-07T01:08:28;1.92;;;1.52;;
54853;SDS011;40747;49.480;8.658;2023-09-07T01:10:57;1.83;;;1.50;;
54853;SDS011;40747;49.480;8.658;2023-09-07T01:13:22;5.43;;;1.67;;
54853;SDS011;40747;49.480;8.658;2023-09-07T01:15:48;2.13;;;1.52;;
54853;SDS011;40747;49.480;8.658;2023-09-07T01:18:13;2.70;;;1.77;;
54853;SDS011;40747;49.480;8.658;2023-09-07T01:20:40;2.70;;;2.13;;
54853;SDS011;40747;49.480;8.658;2023-09-07T01:23:07;3.85;;;1.70;;
54853;SDS011;40747;49.480;8.658;2023-09-07T01:25:33;3.65;;;1.40;;
54853;SDS011;40747;49.480;8.658;2023-09-07T01:27:59;2.75;;;1.88;;
54853;SDS011;40747;49.480;8.658;2023-09-07T01:30:26;2.92;;;1.95;;
54853;SDS011;40747;49.480;8.658;2023-09-07T01:32:52;1.70;;;1.42;;
54853;SDS011;40747;49.480;8.658;2023-09-07T01:35:17;1.48;;;1.38;;
54853;SDS011;40747;49.480;8.658;2023-09-07T01:37:46;5.03;;;1.73;;
54853;SDS011;40747;49.480;8.658;2023-09-07T01:40:12;3.55;;;1.90;;
54853;SDS011;40747;49.480;8.658;2023-09-07T01:42:37;2.78;;;1.85;;
54853;SDS011;40747;49.480;8.658;2023-09-07T01:45:03;1.83;;;1.38;;
54853;SDS011;40747;49.480;8.658;2023-09-07T01:47:28;4.43;;;1.77;;
54853;SDS011;40747;49.480;8.658;2023-09-07T01:49:54;3.05;;;1.88;;
54853;SDS011;40747;49.480;8.658;2023-09-07T01:52:19;2.63;;;1.90;;
54853;SDS011;40747;49.480;8.658;2023-09-07T01:54:44;3.95;;;2.42;;
54853;SDS011;40747;49.480;8.658;2023-09-07T01:57:09;2.50;;;1.08;;
54853;SDS011;40747;49.480;8.658;2023-09-07T01:59:35;4.63;;;2.28;;
54853;SDS011;40747;49.480;8.658;2023-09-07T02:02:00;2.90;;;1.75;;
54853;SDS011;40747;49.480;8.658;2023-09-07T02:04:25;3.42;;;2.10;;
54853;SDS011;40747;49.480;8.658;2023-09-07T02:06:51;1.65;;;1.45;;
54853;SDS011;40747;49.480;8.658;2023-09-07T02:09:16;2.35;;;1.52;;
54853;SDS011;40747;49.480;8.658;2023-09-07T02:11:41;2.78;;;1.85;;
54853;SDS011;40747;49.480;8.658;2023-09-07T02:14:06;3.67;;;1.73;;
54853;SDS011;40747;49.480;8.658;2023-09-07T02:16:32;3.88;;;1.65;;
54853;SDS011;40747;49.480;8.658;2023-09-07T02:19:01;3.35;;;2.05;;
54853;SDS011;40747;49.480;8.658;2023-09-07T02:21:28;4.07;;;2.03;;
54853;SDS011;40747;49.480;8.658;2023-09-07T02:23:54;1.95;;;1.42;;
54853;SDS011;40747;49.480;8.658;2023-09-07T02:26:19;2.28;;;1.60;;
54853;SDS011;40747;49.480;8.658;2023-09-07T02:28:44;3.65;;;2.03;;
54853;SDS011;40747;49.480;8.658;2023-09-07T02:31:09;2.67;;;1.80;;
54853;SDS011;40747;49.480;8.658;2023-09-07T02:33:35;1.13;;;1.05;;
54853;SDS011;40747;49.480;8.658;2023-09-07T02:36:00;2.65;;;1.85;;
54853;SDS011;40747;49.480;8.658;2023-09-07T02:38:26;3.05;;;2.20;;
54853;SDS011;40747;49.480;8.658;2023-09-07T02:40:51;1.75;;;1.65;;
54853;SDS011;40747;49.480;8.658;2023-09-07T02:43:16;2.97;;;2.17;;
54853;SDS011;40747;49.480;8.658;2023-09-07T02:45:42;3.10;;;1.85;;
54853;SDS011;40747;49.480;8.658;2023-09-07T02:48:07;3.45;;;1.55;;
54853;SDS011;40747;49.480;8.658;2023-09-07T02:50:33;2.63;;;1.95;;
54853;SDS011;40747;49.480;8.658;2023-09-07T02:52:59;1.67;;;1.40;;
54853;SDS011;40747;49.480;8.658;2023-09-07T02:55:26;3.25;;;1.30;;
54853;SDS011;40747;49.480;8.658;2023-09-07T02:57:55;2.65;;;1.90;;
54853;SDS011;40747;49.480;8.658;2023-09-07T03:00:21;1.77;;;1.38;;
54853;SDS011;40747;49.480;8.658;2023-09-07T03:02:47;2.75;;;2.00;;
54853;SDS011;40747;49.480;8.658;2023-09-07T03:05:13;3.78;;;2.15;;
54853;SDS011;40747;49.480;8.658;2023-09-07T03:07:41;3.08;;;1.77;;
54853;SDS011;40747;49.480;8.658;2023-09-07T03:10:09;2.53;;;1.80;;
54853;SDS011;40747;49.480;8.658;2023-09-07T03:12:35;3.78;;;1.85;;
54853;SDS011;40747;49.480;8.658;2023-09-07T03:15:00;2.63;;;2.13;;
54853;SDS011;40747;49.480;8.658;2023-09-07T03:17:28;2.95;;;2.13;;
54853;SDS011;40747;49.480;8.658;2023-09-07T03:19:54;1.85;;;1.42;;
54853;SDS011;40747;49.480;8.658;2023-09-07T03:22:19;5.75;;;1.73;;
54853;SDS011;40747;49.480;8.658;2023-09-07T03:24:44;2.85;;;1.88;;
54853;SDS011;40747;49.480;8.658;2023-09-07T03:27:10;3.33;;;2.10;;
54853;SDS011;40747;49.480;8.658;2023-09-07T03:29:36;2.10;;;1.77;;
54853;SDS011;40747;49.480;8.658;2023-09-07T03:32:02;2.65;;;1.88;;
54853;SDS011;40747;49.480;8.658;2023-09-07T03:34:27;3.05;;;1.98;;
54853;SDS011;40747;49.480;8.658;2023-09-07T03:36:52;3.47;;;2.10;;
54853;SDS011;40747;49.480;8.658;2023-09-07T03:39:18;3.53;;;1.98;;
54853;SDS011;40747;49.480;8.658;2023-09-07T03:41:43;2.30;;;1.75;;
54853;SDS011;40747;49.480;8.658;2023-09-07T03:44:09;2.85;;;1.63;;
54853;SDS011;40747;49.480;8.658;2023-09-07T03:46:34;3.25;;;1.85;;
54853;SDS011;40747;49.480;8.658;2023-09-07T03:48:59;3.33;;;2.20;;
54853;SDS011;40747;49.480;8.658;2023-09-07T03:51:25;2.80;;;1.98;;
54853;SDS011;40747;49.480;8.658;2023-09-07T03:53:50;2.45;;;1.88;;
54853;SDS011;40747;49.480;8.658;2023-09-07T03:56:15;3.65;;;2.50;;
54853;SDS011;40747;49.480;8.658;2023-09-07T03:58:41;3.78;;;2.33;;
54853;SDS011;40747;49.480;8.658;2023-09-07T04:01:06;3.00;;;2.10;;
54853;SDS011;40747;49.480;8.658;2023-09-07T04:03:31;3.03;;;1.83;;
54853;SDS011;40747;49.480;8.658;2023-09-07T04:05:57;2.72;;;2.17;;
54853;SDS011;40747;49.480;8.658;2023-09-07T04:08:22;2.53;;;1.70;;
54853;SDS011;40747;49.480;8.658;2023-09-07T04:10:47;2.50;;;1.83;;
54853;SDS011;40747;49.480;8.658;2023-09-07T04:13:13;2.92;;;2.28;;
54853;SDS011;40747;49.480;8.658;2023-09-07T04:15:43;2.17;;;1.80;;
54853;SDS011;40747;49.480;8.658;2023-09-07T04:18:09;6.18;;;1.90;;
54853;SDS011;40747;49.480;8.658;2023-09-07T04:20:35;3.35;;;2.15;;
54853;SDS011;40747;49.480;8.658;2023-09-07T04:23:00;5.05;;;2.20;;
54853;SDS011;40747;49.480;8.658;2023-09-07T04:25:25;6.43;;;2.60;;
54853;SDS011;40747;49.480;8.658;2023-09-07T04:27:51;3.08;;;2.10;;
54853;SDS011;40747;49.480;8.658;2023-09-07T04:30:16;5.72;;;2.80;;
54853;SDS011;40747;49.480;8.658;2023-09-07T04:32:41;4.78;;;1.92;;
54853;SDS011;40747;49.480;8.658;2023-09-07T04:35:07;3.42;;;2.17;;
54853;SDS011;40747;49.480;8.658;2023-09-07T04:37:32;2.97;;;2.13;;
54853;SDS011;40747;49.480;8.658;2023-09-07T04:39:58;4.25;;;2.20;;
54853;SDS011;40747;49.480;8.658;2023-09-07T04:42:23;5.18;;;1.92;;
54853;SDS011;40747;49.480;8.658;2023-09-07T04:44:48;3.15;;;2.22;;
54853;SDS011;40747;49.480;8.658;2023-09-07T04:47:13;4.63;;;2.53;;
54853;SDS011;40747;49.480;8.658;2023-09-07T04:49:40;2.42;;;2.05;;
54853;SDS011;40747;49.480;8.658;2023-09-07T04:52:06;3.85;;;2.42;;
54853;SDS011;40747;49.480;8.658;2023-09-07T04:54:32;4.65;;;2.60;;
54853;SDS011;40747;49.480;8.658;2023-09-07T04:56:57;3.10;;;2.10;;
54853;SDS011;40747;49.480;8.658;2023-09-07T04:59:22;2.03;;;1.80;;
54853;SDS011;40747;49.480;8.658;2023-09-07T05:01:47;3.00;;;2.20;;
54853;SDS011;40747;49.480;8.658;2023-09-07T05:04:13;3.20;;;2.22;;
54853;SDS011;40747;49.480;8.658;2023-09-07T05:06:38;3.75;;;2.47;;
54853;SDS011;40747;49.480;8.658;2023-09-07T05:09:05;4.90;;;2.25;;
54853;SDS011;40747;49.480;8.658;2023-09-07T05:11:31;2.95;;;2.15;;
54853;SDS011;40747;49.480;8.658;2023-09-07T05:13:59;4.47;;;2.40;;
54853;SDS011;40747;49.480;8.658;2023-09-07T05:16:24;3.05;;;1.95;;
54853;SDS011;40747;49.480;8.658;2023-09-07T05:18:50;4.68;;;2.50;;
54853;SDS011;40747;49.480;8.658;2023-09-07T05:21:15;4.55;;;2.38;;
54853;SDS011;40747;49.480;8.658;2023-09-07T05:23:41;7.22;;;2.80;;
54853;SDS011;40747;49.480;8.658;2023-09-07T05:26:07;4.63;;;3.17;;
54853;SDS011;40747;49.480;8.658;2023-09-07T05:28:32;5.07;;;2.72;;
54853;SDS011;40747;49.480;8.658;2023-09-07T05:30:57;6.15;;;3.38;;
54853;SDS011;40747;49.480;8.658;2023-09-07T05:33:23;6.47;;;3.42;;
54853;SDS011;40747;49.480;8.658;2023-09-07T05:35:48;4.78;;;2.92;;
54853;SDS011;40747;49.480;8.658;2023-09-07T05:38:14;7.50;;;3.45;;
54853;SDS011;40747;49.480;8.658;2023-09-07T05:40:40;4.70;;;2.90;;
54853;SDS011;40747;49.480;8.658;2023-09-07T05:43:10;6.80;;;3.10;;
54853;SDS011;40747;49.480;8.658;2023-09-07T05:45:36;6.53;;;3.42;;
54853;SDS011;40747;49.480;8.658;2023-09-07T05:48:04;7.72;;;3.50;;
54853;SDS011;40747;49.480;8.658;2023-09-07T05:50:31;5.30;;;2.78;;
54853;SDS011;40747;49.480;8.658;2023-09-07T05:52:58;7.70;;;2.78;;
54853;SDS011;40747;49.480;8.658;2023-09-07T05:55:23;4.35;;;2.90;;
54853;SDS011;40747;49.480;8.658;2023-09-07T05:57:49;4.82;;;3.20;;
54853;SDS011;40747;49.480;8.658;2023-09-07T06:00:14;4.05;;;2.95;;
54853;SDS011;40747;49.480;8.658;2023-09-07T06:02:41;7.75;;;3.10;;
54853;SDS011;40747;49.480;8.658;2023-09-07T06:05:08;5.32;;;2.97;;
54853;SDS011;40747;49.480;8.658;2023-09-07T06:07:33;6.93;;;3.35;;
54853;SDS011;40747;49.480;8.658;2023-09-07T06:09:58;5.57;;;3.47;;
54853;SDS011;40747;49.480;8.658;2023-09-07T06:12:24;6.00;;;3.10;;
54853;SDS011;40747;49.480;8.658;2023-09-07T06:14:49;3.03;;;2.50;;
54853;SDS011;40747;49.480;8.658;2023-09-07T06:17:14;4.90;;;3.00;;
54853;SDS011;40747;49.480;8.658;2023-09-07T06:19:40;5.22;;;2.88;;
54853;SDS011;40747;49.480;8.658;2023-09-07T06:22:05;4.80;;;3.08;;
54853;SDS011;40747;49.480;8.658;2023-09-07T06:24:30;4.65;;;2.50;;
54853;SDS011;40747;49.480;8.658;2023-09-07T06:26:55;5.88;;;2.97;;
54853;SDS011;40747;49.480;8.658;2023-09-07T06:29:21;4.35;;;3.20;;
54853;SDS011;40747;49.480;8.658;2023-09-07T06:31:46;5.60;;;3.13;;
54853;SDS011;40747;49.480;8.658;2023-09-07T06:34:14;4.70;;;3.03;;
54853;SDS011;40747;49.480;8.658;2023-09-07T06:36:39;5.53;;;3.25;;
54853;SDS011;40747;49.480;8.658;2023-09-07T06:39:05;4.18;;;2.70;;
54853;SDS011;40747;49.480;8.658;2023-09-07T06:41:30;3.95;;;2.67;;
54853;SDS011;40747;49.480;8.658;2023-09-07T06:43:56;4.00;;;2.80;;
54853;SDS011;40747;49.480;8.658;2023-09-07T06:46:21;3.28;;;2.22;;
54853;SDS011;40747;49.480;8.658;2023-09-07T06:48:46;3.08;;;2.15;;
54853;SDS011;40747;49.480;8.658;2023-09-07T06:51:11;4.60;;;3.00;;
54853;SDS011;40747;49.480;8.658;2023-09-07T06:53:37;5.95;;;2.78;;
54853;SDS011;40747;49.480;8.658;2023-09-07T06:56:02;3.35;;;2.10;;
54853;SDS011;40747;49.480;8.658;2023-09-07T06:58:28;4.95;;;3.03;;
54853;SDS011;40747;49.480;8.658;2023-09-07T07:01:00;5.47;;;3.42;;
54853;SDS011;40747;49.480;8.658;2023-09-07T07:05:52;4.43;;;3.40;;
54853;SDS011;40747;49.480;8.658;2023-09-07T07:08:18;5.55;;;2.55;;
54853;SDS011;40747;49.480;8.658;2023-09-07T07:10:43;6.53;;;2.97;;
54853;SDS011;40747;49.480;8.658;2023-09-07T07:13:09;5.63;;;3.42;;
54853;SDS011;40747;49.480;8.658;2023-09-07T07:15:34;3.95;;;2.88;;
54853;SDS011;40747;49.480;8.658;2023-09-07T07:18:00;4.22;;;2.80;;
54853;SDS011;40747;49.480;8.658;2023-09-07T07:20:26;5.50;;;2.85;;
54853;SDS011;40747;49.480;8.658;2023-09-07T07:22:51;3.97;;;2.50;;
54853;SDS011;40747;49.480;8.658;2023-09-07T07:25:17;5.45;;;3.22;;
54853;SDS011;40747;49.480;8.658;2023-09-07T07:27:42;10.02;;;3.25;;
54853;SDS011;40747;49.480;8.658;2023-09-07T07:30:08;5.32;;;3.17;;
54853;SDS011;40747;49.480;8.658;2023-09-07T07:32:34;10.10;;;2.78;;
54853;SDS011;40747;49.480;8.658;2023-09-07T07:34:59;5.70;;;3.40;;
54853;SDS011;40747;49.480;8.658;2023-09-07T07:37:25;6.35;;;3.38;;
54853;SDS011;40747;49.480;8.658;2023-09-07T07:39:50;6.78;;;3.30;;
54853;SDS011;40747;49.480;8.658;2023-09-07T07:42:15;5.55;;;3.20;;
54853;SDS011;40747;49.480;8.658;2023-09-07T07:44:40;8.70;;;3.50;;
54853;SDS011;40747;49.480;8.658;2023-09-07T07:47:06;6.03;;;3.40;;
54853;SDS011;40747;49.480;8.658;2023-09-07T07:49:31;4.68;;;2.90;;
54853;SDS011;40747;49.480;8.658;2023-09-07T07:51:57;5.25;;;2.90;;
54853;SDS011;40747;49.480;8.658;2023-09-07T07:54:23;4.82;;;3.20;;
54853;SDS011;40747;49.480;8.658;2023-09-07T07:56:50;3.78;;;3.00;;
54853;SDS011;40747;49.480;8.658;2023-09-07T07:59:15;7.53;;;3.30;;
54853;SDS011;40747;49.480;8.658;2023-09-07T08:01:40;8.35;;;3.38;;
54853;SDS011;40747;49.480;8.658;2023-09-07T08:04:06;4.45;;;3.15;;
54853;SDS011;40747;49.480;8.658;2023-09-07T08:06:32;4.53;;;3.08;;
54853;SDS011;40747;49.480;8.658;2023-09-07T08:08:58;4.43;;;2.80;;
54853;SDS011;40747;49.480;8.658;2023-09-07T08:11:23;3.22;;;2.78;;
54853;SDS011;40747;49.480;8.658;2023-09-07T08:13:48;3.67;;;2.80;;
54853;SDS011;40747;49.480;8.658;2023-09-07T08:16:14;3.78;;;2.90;;
54853;SDS011;40747;49.480;8.658;2023-09-07T08:18:39;7.63;;;2.83;;
54853;SDS011;40747;49.480;8.658;2023-09-07T08:21:05;3.65;;;2.88;;
54853;SDS011;40747;49.480;8.658;2023-09-07T08:23:30;6.18;;;2.58;;
54853;SDS011;40747;49.480;8.658;2023-09-07T08:25:56;2.85;;;2.55;;
54853;SDS011;40747;49.480;8.658;2023-09-07T08:28:21;5.75;;;2.97;;
54853;SDS011;40747;49.480;8.658;2023-09-07T08:30:50;3.90;;;2.60;;
54853;SDS011;40747;49.480;8.658;2023-09-07T08:35:55;4.40;;;2.70;;
54853;SDS011;40747;49.480;8.658;2023-09-07T08:38:22;3.60;;;2.67;;
54853;SDS011;40747;49.480;8.658;2023-09-07T08:40:51;6.15;;;2.67;;
54853;SDS011;40747;49.480;8.658;2023-09-07T08:43:18;4.18;;;2.78;;
54853;SDS011;40747;49.480;8.658;2023-09-07T08:45:49;4.28;;;2.80;;
54853;SDS011;40747;49.480;8.658;2023-09-07T08:48:22;3.88;;;2.53;;
54853;SDS011;40747;49.480;8.658;2023-09-07T08:50:50;3.00;;;2.33;;
54853;SDS011;40747;49.480;8.658;2023-09-07T08:53:17;4.53;;;2.75;;
54853;SDS011;40747;49.480;8.658;2023-09-07T08:55:45;3.55;;;2.55;;
54853;SDS011;40747;49.480;8.658;2023-09-07T08:58:10;4.57;;;3.03;;
54853;SDS011;40747;49.480;8.658;2023-09-07T09:00:36;4.72;;;2.47;;
54853;SDS011;40747;49.480;8.658;2023-09-07T09:03:02;10.25;;;3.40;;
54853;SDS011;40747;49.480;8.658;2023-09-07T09:05:28;3.97;;;2.47;;
54853;SDS011;40747;49.480;8.658;2023-09-07T09:08:04;3.08;;;2.58;;
54853;SDS011;40747;49.480;8.658;2023-09-07T09:10:30;4.03;;;2.60;;
54853;SDS011;40747;49.480;8.658;2023-09-07T09:12:56;3.88;;;2.58;;
54853;SDS011;40747;49.480;8.658;2023-09-07T09:15:22;4.80;;;3.10;;
54853;SDS011;40747;49.480;8.658;2023-09-07T09:17:47;6.40;;;2.60;;
54853;SDS011;40747;49.480;8.658;2023-09-07T09:20:22;4.07;;;2.38;;
54853;SDS011;40747;49.480;8.658;2023-09-07T09:22:52;4.82;;;2.65;;
54853;SDS011;40747;49.480;8.658;2023-09-07T09:25:19;4.82;;;2.95;;
54853;SDS011;40747;49.480;8.658;2023-09-07T09:27:45;3.05;;;2.55;;
54853;SDS011;40747;49.480;8.658;2023-09-07T09:30:12;4.38;;;2.40;;
54853;SDS011;40747;49.480;8.658;2023-09-07T09:32:40;3.28;;;2.70;;
54853;SDS011;40747;49.480;8.658;2023-09-07T09:35:06;4.78;;;2.70;;
54853;SDS011;40747;49.480;8.658;2023-09-07T09:37:32;3.55;;;2.33;;
54853;SDS011;40747;49.480;8.658;2023-09-07T09:39:58;4.22;;;2.70;;
54853;SDS011;40747;49.480;8.658;2023-09-07T09:42:27;4.18;;;2.40;;
54853;SDS011;40747;49.480;8.658;2023-09-07T09:44:52;3.45;;;2.25;;
54853;SDS011;40747;49.480;8.658;2023-09-07T09:47:19;2.97;;;2.60;;
54853;SDS011;40747;49.480;8.658;2023-09-07T09:49:46;2.80;;;1.98;;
54853;SDS011;40747;49.480;8.658;2023-09-07T09:52:14;3.33;;;2.67;;
54853;SDS011;40747;49.480;8.658;2023-09-07T09:54:40;3.58;;;2.63;;
54853;SDS011;40747;49.480;8.658;2023-09-07T09:57:06;4.30;;;3.03;;
54853;SDS011;40747;49.480;8.658;2023-09-07T09:59:31;3.38;;;2.05;;
54853;SDS011;40747;49.480;8.658;2023-09-07T10:01:58;2.45;;;2.25;;
54853;SDS011;40747;49.480;8.658;2023-09-07T10:04:25;3.35;;;2.55;;
54853;SDS011;40747;49.480;8.658;2023-09-07T10:07:00;2.92;;;2.22;;
54853;SDS011;40747;49.480;8.658;2023-09-07T10:09:32;2.60;;;2.40;;
54853;SDS011;40747;49.480;8.658;2023-09-07T10:11:59;4.53;;;2.30;;
54853;SDS011;40747;49.480;8.658;2023-09-07T10:14:26;4.55;;;2.53;;
54853;SDS011;40747;49.480;8.658;2023-09-07T10:17:02;2.92;;;2.33;;
54853;SDS011;40747;49.480;8.658;2023-09-07T10:19:29;2.75;;;2.00;;
54853;SDS011;40747;49.480;8.658;2023-09-07T10:21:54;3.15;;;2.33;;
54853;SDS011;40747;49.480;8.658;2023-09-07T10:24:31;3.28;;;1.90;;
54853;SDS011;40747;49.480;8.658;2023-09-07T10:27:11;2.85;;;2.20;;
54853;SDS011;40747;49.480;8.658;2023-09-07T10:32:11;2.50;;;2.10;;
54853;SDS011;40747;49.480;8.658;2023-09-07T10:34:39;2.90;;;2.35;;
54853;SDS011;40747;49.480;8.658;2023-09-07T10:37:09;2.50;;;2.30;;
54853;SDS011;40747;49.480;8.658;2023-09-07T10:39:37;3.85;;;2.60;;
54853;SDS011;40747;49.480;8.658;2023-09-07T10:42:04;2.70;;;2.10;;
54853;SDS011;40747;49.480;8.658;2023-09-07T10:44:29;2.25;;;1.88;;
54853;SDS011;40747;49.480;8.658;2023-09-07T10:46:55;4.85;;;2.20;;
54853;SDS011;40747;49.480;8.658;2023-09-07T10:49:22;2.55;;;2.28;;
54853;SDS011;40747;49.480;8.658;2023-09-07T10:51:47;2.55;;;1.90;;
54853;SDS011;40747;49.480;8.658;2023-09-07T10:54:13;4.18;;;2.15;;
54853;SDS011;40747;49.480;8.658;2023-09-07T10:56:40;3.72;;;2.15;;
54853;SDS011;40747;49.480;8.658;2023-09-07T10:59:05;2.63;;;1.88;;
54853;SDS011;40747;49.480;8.658;2023-09-07T11:01:31;2.08;;;1.80;;
54853;SDS011;40747;49.480;8.658;2023-09-07T11:03:56;4.40;;;1.90;;
54853;SDS011;40747;49.480;8.658;2023-09-07T11:06:21;4.75;;;2.00;;
54853;SDS011;40747;49.480;8.658;2023-09-07T11:08:47;3.50;;;1.90;;
54853;SDS011;40747;49.480;8.658;2023-09-07T11:11:13;3.10;;;2.37;;
54853;SDS011;40747;49.480;8.658;2023-09-07T11:13:39;3.05;;;2.03;;
54853;SDS011;40747;49.480;8.658;2023-09-07T11:16:06;3.27;;;2.43;;
54853;SDS011;40747;49.480;8.658;2023-09-07T11:18:33;4.72;;;2.20;;
54853;SDS011;40747;49.480;8.658;2023-09-07T11:21:00;3.42;;;2.20;;
54853;SDS011;40747;49.480;8.658;2023-09-07T11:23:28;2.15;;;1.70;;
54853;SDS011;40747;49.480;8.658;2023-09-07T11:25:54;2.83;;;2.05;;
54853;SDS011;40747;49.480;8.658;2023-09-07T11:28:19;2.63;;;2.05;;
54853;SDS011;40747;49.480;8.658;2023-09-07T11:30:50;2.92;;;2.17;;
54853;SDS011;40747;49.480;8.658;2023-09-07T11:33:16;4.05;;;2.15;;
54853;SDS011;40747;49.480;8.658;2023-09-07T11:35:42;3.45;;;2.20;;
54853;SDS011;40747;49.480;8.658;2023-09-07T11:38:08;3.00;;;2.17;;
54853;SDS011;40747;49.480;8.658;2023-09-07T11:40:35;3.75;;;1.75;;
54853;SDS011;40747;49.480;8.658;2023-09-07T11:43:01;6.18;;;2.17;;
54853;SDS011;40747;49.480;8.658;2023-09-07T11:45:27;3.67;;;1.85;;
54853;SDS011;40747;49.480;8.658;2023-09-07T11:47:57;3.85;;;1.95;;
54853;SDS011;40747;49.480;8.658;2023-09-07T11:50:23;1.95;;;1.75;;
54853;SDS011;40747;49.480;8.658;2023-09-07T11:52:49;2.33;;;1.95;;
54853;SDS011;40747;49.480;8.658;2023-09-07T11:55:15;2.85;;;2.00;;
54853;SDS011;40747;49.480;8.658;2023-09-07T11:57:40;2.85;;;2.10;;
54853;SDS011;40747;49.480;8.658;2023-09-07T12:00:06;2.90;;;2.00;;
54853;SDS011;40747;49.480;8.658;2023-09-07T12:02:36;3.60;;;2.10;;
54853;SDS011;40747;49.480;8.658;2023-09-07T12:05:02;2.75;;;2.20;;
54853;SDS011;40747;49.480;8.658;2023-09-07T12:07:28;2.13;;;1.92;;
54853;SDS011;40747;49.480;8.658;2023-09-07T12:09:55;3.13;;;2.00;;
54853;SDS011;40747;49.480;8.658;2023-09-07T12:12:22;4.55;;;2.00;;
54853;SDS011;40747;49.480;8.658;2023-09-07T12:14:48;4.45;;;2.15;;
54853;SDS011;40747;49.480;8.658;2023-09-07T12:17:13;2.60;;;2.00;;
54853;SDS011;40747;49.480;8.658;2023-09-07T12:19:38;2.23;;;2.00;;
54853;SDS011;40747;49.480;8.658;2023-09-07T12:22:06;2.92;;;2.08;;
54853;SDS011;40747;49.480;8.658;2023-09-07T12:24:32;2.60;;;2.20;;
54853;SDS011;40747;49.480;8.658;2023-09-07T12:26:58;3.47;;;2.30;;
54853;SDS011;40747;49.480;8.658;2023-09-07T12:29:24;3.13;;;1.90;;
54853;SDS011;40747;49.480;8.658;2023-09-07T12:31:50;2.60;;;1.70;;
54853;SDS011;40747;49.480;8.658;2023-09-07T12:34:15;3.15;;;2.10;;
54853;SDS011;40747;49.480;8.658;2023-09-07T12:36:41;3.28;;;2.35;;
54853;SDS011;40747;49.480;8.658;2023-09-07T12:39:06;3.08;;;2.40;;
54853;SDS011;40747;49.480;8.658;2023-09-07T12:41:31;3.88;;;2.28;;
54853;SDS011;40747;49.480;8.658;2023-09-07T12:43:57;4.20;;;2.13;;
54853;SDS011;40747;49.480;8.658;2023-09-07T12:46:22;2.97;;;1.95;;
54853;SDS011;40747;49.480;8.658;2023-09-07T12:48:47;4.13;;;2.05;;
54853;SDS011;40747;49.480;8.658;2023-09-07T12:51:13;2.35;;;1.90;;
54853;SDS011;40747;49.480;8.658;2023-09-07T12:53:38;3.10;;;2.22;;
54853;SDS011;40747;49.480;8.658;2023-09-07T12:56:04;4.10;;;2.33;;
54853;SDS011;40747;49.480;8.658;2023-09-07T12:58:30;2.35;;;2.15;;
54853;SDS011;40747;49.480;8.658;2023-09-07T13:00:56;2.72;;;2.28;;
54853;SDS011;40747;49.480;8.658;2023-09-07T13:03:21;4.47;;;2.22;;
54853;SDS011;40747;49.480;8.658;2023-09-07T13:05:46;2.17;;;1.98;;
54853;SDS011;40747;49.480;8.658;2023-09-07T13:08:12;2.80;;;2.40;;
54853;SDS011;40747;49.480;8.658;2023-09-07T13:10:38;4.35;;;2.30;;
54853;SDS011;40747;49.480;8.658;2023-09-07T13:13:03;3.72;;;2.13;;
54853;SDS011;40747;49.480;8.658;2023-09-07T13:15:29;3.38;;;2.88;;
54853;SDS011;40747;49.480;8.658;2023-09-07T13:17:54;2.75;;;2.13;;
54853;SDS011;40747;49.480;8.658;2023-09-07T13:20:20;2.33;;;2.10;;
54853;SDS011;40747;49.480;8.658;2023-09-07T13:22:45;2.35;;;2.10;;
54853;SDS011;40747;49.480;8.658;2023-09-07T13:25:11;4.72;;;2.30;;
54853;SDS011;40747;49.480;8.658;2023-09-07T13:27:37;2.83;;;2.05;;
54853;SDS011;40747;49.480;8.658;2023-09-07T13:30:02;2.50;;;1.90;;
54853;SDS011;40747;49.480;8.658;2023-09-07T13:32:28;2.40;;;2.10;;
54853;SDS011;40747;49.480;8.658;2023-09-07T13:34:54;2.58;;;2.00;;
54853;SDS011;40747;49.480;8.658;2023-09-07T13:37:20;4.32;;;2.10;;
54853;SDS011;40747;49.480;8.658;2023-09-07T13:39:45;3.25;;;2.40;;
54853;SDS011;40747;49.480;8.658;2023-09-07T13:42:10;2.77;;;2.20;;
54853;SDS011;40747;49.480;8.658;2023-09-07T13:44:36;4.45;;;2.22;;
54853;SDS011;40747;49.480;8.658;2023-09-07T13:47:01;2.85;;;2.05;;
54853;SDS011;40747;49.480;8.658;2023-09-07T13:49:26;3.08;;;2.22;;
54853;SDS011;40747;49.480;8.658;2023-09-07T13:51:52;3.22;;;2.35;;
54853;SDS011;40747;49.480;8.658;2023-09-07T13:54:17;4.15;;;2.58;;
54853;SDS011;40747;49.480;8.658;2023-09-07T13:56:42;2.47;;;2.08;;
54853;SDS011;40747;49.480;8.658;2023-09-07T13:59:10;3.90;;;2.50;;
54853;SDS011;40747;49.480;8.658;2023-09-07T14:01:35;3.83;;;2.60;;
54853;SDS011;40747;49.480;8.658;2023-09-07T14:04:00;3.22;;;2.47;;
54853;SDS011;40747;49.480;8.658;2023-09-07T14:06:26;3.60;;;2.47;;
54853;SDS011;40747;49.480;8.658;2023-09-07T14:08:51;4.20;;;2.33;;
54853;SDS011;40747;49.480;8.658;2023-09-07T14:11:17;6.85;;;2.22;;
54853;SDS011;40747;49.480;8.658;2023-09-07T14:13:42;6.53;;;2.33;;
54853;SDS011;40747;49.480;8.658;2023-09-07T14:16:07;3.88;;;2.47;;
54853;SDS011;40747;49.480;8.658;2023-09-07T14:18:35;2.53;;;2.05;;
54853;SDS011;40747;49.480;8.658;2023-09-07T14:21:01;3.45;;;2.53;;
54853;SDS011;40747;49.480;8.658;2023-09-07T14:23:27;4.10;;;2.30;;
54853;SDS011;40747;49.480;8.658;2023-09-07T14:25:53;2.63;;;2.00;;
54853;SDS011;40747;49.480;8.658;2023-09-07T14:28:18;3.22;;;2.30;;
54853;SDS011;40747;49.480;8.658;2023-09-07T14:30:43;2.72;;;2.15;;
54853;SDS011;40747;49.480;8.658;2023-09-07T14:33:09;3.97;;;2.35;;
54853;SDS011;40747;49.480;8.658;2023-09-07T14:35:34;2.50;;;2.20;;
54853;SDS011;40747;49.480;8.658;2023-09-07T14:37:59;2.47;;;2.28;;
54853;SDS011;40747;49.480;8.658;2023-09-07T14:40:25;2.90;;;1.95;;
54853;SDS011;40747;49.480;8.658;2023-09-07T14:42:50;2.85;;;2.35;;
54853;SDS011;40747;49.480;8.658;2023-09-07T14:45:16;5.57;;;2.38;;
54853;SDS011;40747;49.480;8.658;2023-09-07T14:47:41;3.80;;;2.50;;
54853;SDS011;40747;49.480;8.658;2023-09-07T14:50:07;4.50;;;2.40;;